Time;durP1;ratioP1;P1;durP2;ratioP2;P2;SDS_P1;SDS_P2;PMS_P1;PMS_P2;Temp;Humidity;BMP_temperature;BMP_pressure;BME280_temperature;BME280_humidity;BME280_pressure;Samples;Min_cycle;Max_cycle;Signal;HPM_P1;HPM_P2
2022/06/18 00:00:47;;;;;;;0.30;0.30;;;17.00;95.00;;;;;;5116106;28;20436;-70
2022/06/18 00:03:13;;;;;;;0.50;0.50;;;17.00;94.90;;;;;;5114954;28;20463;-70
2022/06/18 00:05:41;;;;;;;0.30;0.30;;;17.00;95.10;;;;;;5116082;28;20438;-70
2022/06/18 00:08:16;;;;;;;0.40;0.40;;;16.90;95.50;;;;;;5116262;28;20401;-70
2022/06/18 00:10:43;;;;;;;0.30;0.30;;;16.80;95.50;;;;;;5116126;28;20397;-68
2022/06/18 00:13:41;;;;;;;0.30;0.30;;;16.80;95.70;;;;;;5115825;28;20855;-70
2022/06/18 00:16:13;;;;;;;0.30;0.30;;;16.70;96.00;;;;;;5115815;28;20759;-70
2022/06/18 00:18:38;;;;;;;0.30;0.30;;;16.70;96.00;;;;;;5115925;28;20429;-69
2022/06/18 00:21:06;;;;;;;0.30;0.30;;;16.70;95.60;;;;;;5115889;28;20809;-70
2022/06/18 00:23:32;;;;;;;0.30;0.30;;;16.60;94.40;;;;;;5114100;28;21015;-70
2022/06/18 00:25:58;;;;;;;0.30;0.30;;;16.70;94.60;;;;;;5115616;28;20436;-70
2022/06/18 00:28:30;;;;;;;0.30;0.30;;;16.70;95.10;;;;;;5115805;28;20496;-69
2022/06/18 00:30:55;;;;;;;0.30;0.30;;;16.70;95.40;;;;;;5115463;28;20405;-70
2022/06/18 00:33:23;;;;;;;0.83;0.70;;;16.60;95.60;;;;;;5115261;28;20755;-70
2022/06/18 00:35:51;;;;;;;0.40;0.40;;;16.60;95.80;;;;;;5115524;28;20181;-70
2022/06/18 00:38:24;;;;;;;0.30;0.30;;;16.60;95.80;;;;;;5115568;28;20455;-70
2022/06/18 00:40:51;;;;;;;0.30;0.30;;;16.50;96.00;;;;;;5115618;28;20394;-70
2022/06/18 00:43:20;;;;;;;0.30;0.30;;;16.40;96.00;;;;;;5115079;28;20765;-70
2022/06/18 00:45:48;;;;;;;0.30;0.30;;;16.50;95.50;;;;;;5115438;28;20405;-69
2022/06/18 00:48:28;;;;;;;0.40;0.40;;;16.50;96.00;;;;;;5115353;28;20879;-69
2022/06/18 00:51:02;;;;;;;0.30;0.30;;;16.50;95.80;;;;;;5115366;28;20402;-70
2022/06/18 00:53:44;;;;;;;0.30;0.30;;;16.40;96.40;;;;;;5115070;28;20436;-70
2022/06/18 00:56:22;;;;;;;0.40;0.40;;;16.50;96.40;;;;;;5115185;28;20481;-69
2022/06/18 00:58:58;;;;;;;0.30;0.30;;;16.40;95.60;;;;;;5113777;28;20449;-69
2022/06/18 01:01:33;;;;;;;0.30;0.30;;;16.30;95.80;;;;;;5115130;28;20397;-70
2022/06/18 01:03:59;;;;;;;0.30;0.30;;;16.40;95.70;;;;;;5114711;28;20431;-70
2022/06/18 01:06:29;;;;;;;0.30;0.30;;;16.40;95.30;;;;;;5114920;28;20401;-70
2022/06/18 01:09:05;;;;;;;0.40;0.40;;;16.40;95.80;;;;;;5115090;28;20166;-70
2022/06/18 01:11:35;;;;;;;0.30;0.30;;;16.40;95.90;;;;;;5114823;28;20406;-69
2022/06/18 01:14:04;;;;;;;0.30;0.30;;;16.50;95.90;;;;;;5114192;28;20837;-70
2022/06/18 01:16:31;;;;;;;0.40;0.40;;;16.50;95.70;;;;;;5113401;28;20486;-69
2022/06/18 01:18:57;;;;;;;0.40;0.40;;;16.40;95.60;;;;;;5114731;28;20755;-70
2022/06/18 01:21:40;;;;;;;0.50;0.50;;;16.40;96.00;;;;;;5114745;28;20401;-70
2022/06/18 01:24:21;;;;;;;0.40;0.40;;;16.40;96.20;;;;;;5114462;28;20208;-69
2022/06/18 01:26:51;;;;;;;0.30;0.30;;;16.30;96.40;;;;;;5114534;28;20402;-70
2022/06/18 01:29:18;;;;;;;0.80;0.80;;;16.30;96.40;;;;;;5114611;28;20398;-71
2022/06/18 01:31:45;;;;;;;0.30;0.30;;;16.20;96.50;;;;;;5114650;28;20405;-70
2022/06/18 01:34:11;;;;;;;0.30;0.30;;;16.20;96.40;;;;;;5114209;28;20433;-70
2022/06/18 01:36:38;;;;;;;0.40;0.40;;;16.20;96.20;;;;;;5114302;28;20460;-69
2022/06/18 01:39:12;;;;;;;0.30;0.30;;;16.20;96.10;;;;;;5114815;27;20402;-69
2022/06/18 01:41:50;;;;;;;0.30;0.30;;;16.20;95.60;;;;;;5114548;28;20397;-70
2022/06/18 01:44:23;;;;;;;0.30;0.30;;;16.30;95.20;;;;;;5114102;28;20771;-70
2022/06/18 01:46:52;;;;;;;0.30;0.30;;;16.40;95.50;;;;;;5114477;28;20390;-71
2022/06/18 01:49:23;;;;;;;0.50;0.50;;;16.40;95.70;;;;;;5114309;28;20500;-69
2022/06/18 01:51:50;;;;;;;0.40;0.40;;;16.40;96.50;;;;;;5114226;28;20432;-70
2022/06/18 01:54:32;;;;;;;0.30;0.30;;;16.30;96.40;;;;;;5113929;28;20790;-71
2022/06/18 01:57:04;;;;;;;0.30;0.30;;;16.20;95.90;;;;;;5114161;28;20524;-71
2022/06/18 01:59:33;;;;;;;0.70;0.70;;;16.20;95.20;;;;;;5114172;28;20399;-70
2022/06/18 02:02:00;;;;;;;0.40;0.40;;;16.30;95.90;;;;;;5114496;28;20409;-70
2022/06/18 02:04:27;;;;;;;0.30;0.30;;;16.30;95.90;;;;;;5113996;28;20509;-71
2022/06/18 02:06:54;;;;;;;0.30;0.30;;;16.20;96.20;;;;;;5114239;28;20744;-70
2022/06/18 02:09:44;;;;;;;0.30;0.30;;;16.20;96.30;;;;;;5114194;28;20408;-69
2022/06/18 02:12:24;;;;;;;0.77;0.77;;;16.20;97.00;;;;;;5113939;28;20405;-69
2022/06/18 02:14:54;;;;;;;0.30;0.30;;;16.10;96.80;;;;;;5113940;28;20422;-70
2022/06/18 02:17:21;;;;;;;0.30;0.30;;;16.00;96.50;;;;;;5114061;28;20537;-71
2022/06/18 02:19:52;;;;;;;0.30;0.30;;;16.00;96.50;;;;;;5113800;28;20401;-70
2022/06/18 02:22:20;;;;;;;0.40;0.40;;;16.10;95.80;;;;;;5113749;28;20512;-70
2022/06/18 02:24:46;;;;;;;0.30;0.30;;;16.20;95.60;;;;;;5114250;28;20432;-69
2022/06/18 02:27:14;;;;;;;0.30;0.30;;;16.10;96.10;;;;;;5118171;28;20759;-70
2022/06/18 02:29:42;;;;;;;0.30;0.30;;;16.10;96.20;;;;;;5118036;28;20503;-70
2022/06/18 02:32:20;;;;;;;0.30;0.30;;;16.10;96.70;;;;;;5118100;28;20397;-69
2022/06/18 02:34:46;;;;;;;0.30;0.30;;;16.00;96.70;;;;;;5118092;28;20431;-71
2022/06/18 02:37:23;;;;;;;0.40;0.40;;;15.90;96.80;;;;;;5117640;28;20460;-70
2022/06/18 02:40:23;;;;;;;0.30;0.30;;;15.90;97.20;;;;;;5117978;28;20228;-70
2022/06/18 02:42:51;;;;;;;0.40;0.40;;;15.90;97.10;;;;;;5115160;28;20841;-69
2022/06/18 02:45:19;;;;;;;0.40;0.40;;;15.90;97.50;;;;;;5117575;28;20464;-70
2022/06/18 02:47:46;;;;;;;0.30;0.30;;;15.90;96.70;;;;;;5117784;28;20414;-70
2022/06/18 02:50:14;;;;;;;0.30;0.30;;;15.90;97.10;;;;;;5117553;28;20405;-69
2022/06/18 02:52:46;;;;;;;0.30;0.30;;;15.90;97.30;;;;;;5117462;28;20443;-69
2022/06/18 02:55:29;;;;;;;1.17;1.07;;;15.90;97.30;;;;;;5117560;28;20435;-70
2022/06/18 02:58:02;;;;;;;0.30;0.30;;;15.90;96.10;;;;;;5117519;28;20449;-69
2022/06/18 03:00:28;;;;;;;0.30;0.30;;;16.00;95.60;;;;;;5117348;28;20875;-69
2022/06/18 03:02:54;;;;;;;0.30;0.30;;;16.00;95.50;;;;;;5117395;28;20434;-70
2022/06/18 03:05:23;;;;;;;0.30;0.30;;;16.00;95.70;;;;;;5117263;27;20423;-69
2022/06/18 03:07:49;;;;;;;0.30;0.30;;;15.90;95.80;;;;;;5117763;28;20204;-69
2022/06/18 03:12:59;;;;;;;0.30;0.30;;;15.90;96.70;;;;;;5117409;28;20214;-69
2022/06/18 03:15:25;;;;;;;0.30;0.30;;;15.90;96.50;;;;;;5117176;28;20430;-70
2022/06/18 03:17:52;;;;;;;0.30;0.30;;;15.90;96.30;;;;;;5117099;28;20333;-69
2022/06/18 03:20:19;;;;;;;0.30;0.30;;;15.90;96.30;;;;;;5117374;28;20183;-70
2022/06/18 03:22:46;;;;;;;0.30;0.30;;;15.90;96.60;;;;;;5116641;28;20437;-71
2022/06/18 03:25:11;;;;;;;0.30;0.30;;;15.80;96.90;;;;;;5116780;28;20426;-70
2022/06/18 03:27:37;;;;;;;0.80;0.80;;;15.80;97.40;;;;;;5116867;27;20397;-70
2022/06/18 03:30:04;;;;;;;0.30;0.30;;;15.70;97.10;;;;;;5116850;28;20229;-70
2022/06/18 03:32:31;;;;;;;0.30;0.30;;;15.80;97.30;;;;;;5116634;28;20229;-70
2022/06/18 03:34:57;;;;;;;0.40;0.40;;;15.80;96.40;;;;;;5116646;28;20430;-70
2022/06/18 03:37:23;;;;;;;0.30;0.30;;;15.90;96.50;;;;;;5116507;28;20453;-69
2022/06/18 03:39:48;;;;;;;0.30;0.30;;;15.90;97.20;;;;;;5116784;28;20175;-71
2022/06/18 03:42:14;;;;;;;0.30;0.30;;;15.80;97.20;;;;;;5116365;28;20409;-69
2022/06/18 03:44:40;;;;;;;0.30;0.30;;;15.90;96.90;;;;;;5116477;28;20224;-70
2022/06/18 03:47:06;;;;;;;0.30;0.30;;;15.90;97.80;;;;;;5116571;28;20206;-70
2022/06/18 03:49:33;;;;;;;0.40;0.40;;;15.80;96.90;;;;;;5116688;28;20177;-70
2022/06/18 03:52:01;;;;;;;0.30;0.30;;;15.80;96.80;;;;;;5116554;28;20512;-70
2022/06/18 03:54:27;;;;;;;0.30;0.30;;;16.00;96.20;;;;;;5116196;28;20480;-69
2022/06/18 03:56:53;;;;;;;0.50;0.50;;;16.10;96.80;;;;;;5116211;27;20543;-70
2022/06/18 03:59:19;;;;;;;0.30;0.30;;;16.10;97.00;;;;;;5116336;28;20164;-70
2022/06/18 04:01:44;;;;;;;0.50;0.50;;;16.10;97.00;;;;;;5116252;28;20401;-69
2022/06/18 04:04:11;;;;;;;0.30;0.30;;;16.20;96.80;;;;;;5114694;28;20456;-69
2022/06/18 04:06:38;;;;;;;0.87;0.87;;;16.20;96.50;;;;;;5116170;28;20667;-70
2022/06/18 04:09:04;;;;;;;0.40;0.40;;;16.20;96.70;;;;;;5116089;28;20418;-70
2022/06/18 04:11:31;;;;;;;0.40;0.40;;;16.20;97.00;;;;;;5116003;28;20827;-70
2022/06/18 04:13:56;;;;;;;0.40;0.40;;;16.30;97.30;;;;;;5115766;28;20776;-70
2022/06/18 04:16:23;;;;;;;0.30;0.30;;;16.30;96.90;;;;;;5115948;28;20459;-70
2022/06/18 04:18:49;;;;;;;0.30;0.30;;;16.40;97.00;;;;;;5116150;28;20161;-71
2022/06/18 04:21:15;;;;;;;0.30;0.30;;;16.40;96.70;;;;;;5115868;28;20891;-70
2022/06/18 04:23:42;;;;;;;0.30;0.30;;;16.40;97.10;;;;;;5115483;28;20223;-70
2022/06/18 04:26:08;;;;;;;0.30;0.30;;;16.50;97.20;;;;;;5115680;28;20451;-70
2022/06/18 04:28:34;;;;;;;0.30;0.30;;;16.50;96.80;;;;;;5115891;28;20405;-70
2022/06/18 04:31:00;;;;;;;0.30;0.30;;;16.60;97.10;;;;;;5115696;28;20435;-70
2022/06/18 04:33:26;;;;;;;0.50;0.50;;;16.80;97.10;;;;;;5115320;28;20404;-70
2022/06/18 04:35:56;;;;;;;0.50;0.50;;;17.00;97.40;;;;;;5115423;27;20421;-70
2022/06/18 04:38:23;;;;;;;0.63;0.63;;;17.10;97.30;;;;;;5115367;28;20200;-70
2022/06/18 04:40:49;;;;;;;0.30;0.30;;;17.40;97.50;;;;;;5115353;27;20899;-69
2022/06/18 04:43:15;;;;;;;1.00;0.60;;;17.60;97.20;;;;;;5114992;28;20403;-70
2022/06/18 04:45:41;;;;;;;0.30;0.30;;;17.90;96.70;;;;;;5115203;28;20528;-70
2022/06/18 04:48:07;;;;;;;0.30;0.30;;;18.10;96.10;;;;;;5114476;28;20402;-71
2022/06/18 04:50:36;;;;;;;0.40;0.40;;;18.40;96.00;;;;;;5115335;28;20214;-70
2022/06/18 04:53:04;;;;;;;0.30;0.30;;;18.60;95.60;;;;;;5114981;28;20406;-71
2022/06/18 04:55:30;;;;;;;0.40;0.40;;;19.00;95.20;;;;;;5115065;28;20482;-70
2022/06/18 04:57:55;;;;;;;0.30;0.30;;;19.30;94.60;;;;;;5115081;28;20451;-69
2022/06/18 05:00:21;;;;;;;0.30;0.30;;;19.50;94.20;;;;;;5115374;28;20522;-71
2022/06/18 05:02:47;;;;;;;0.40;0.30;;;19.70;94.10;;;;;;5114929;28;20243;-70
2022/06/18 05:05:21;;;;;;;0.30;0.30;;;19.90;93.80;;;;;;5114828;28;20206;-70
2022/06/18 05:07:47;;;;;;;0.30;0.30;;;20.20;93.40;;;;;;5115003;28;20177;-71
2022/06/18 05:10:13;;;;;;;0.30;0.30;;;20.30;92.70;;;;;;5114867;28;20793;-69
2022/06/18 05:12:39;;;;;;;0.63;0.63;;;20.50;92.70;;;;;;5114712;28;20183;-71
2022/06/18 05:15:07;;;;;;;0.30;0.30;;;20.50;93.10;;;;;;5114660;28;20836;-70
2022/06/18 05:17:34;;;;;;;0.30;0.30;;;20.70;92.60;;;;;;5114643;28;20446;-70
2022/06/18 05:20:00;;;;;;;0.70;0.53;;;20.80;92.50;;;;;;5114928;28;20875;-71
2022/06/18 05:22:27;;;;;;;0.80;0.53;;;21.00;91.20;;;;;;5114088;28;20433;-70
2022/06/18 05:24:53;;;;;;;0.93;0.93;;;21.20;91.30;;;;;;5114471;28;20423;-71
2022/06/18 05:27:26;;;;;;;0.40;0.40;;;21.30;91.50;;;;;;5114459;28;20402;-70
2022/06/18 05:29:52;;;;;;;0.30;0.30;;;21.50;91.30;;;;;;5114655;28;20544;-71
2022/06/18 05:32:18;;;;;;;0.40;0.40;;;21.60;90.90;;;;;;5114439;28;20407;-70
2022/06/18 05:34:44;;;;;;;0.30;0.30;;;21.70;90.40;;;;;;5114415;28;20435;-71
2022/06/18 05:37:18;;;;;;;0.30;0.30;;;21.90;90.20;;;;;;5114384;28;20279;-70
2022/06/18 05:39:44;;;;;;;0.30;0.30;;;22.10;91.10;;;;;;5114391;28;20403;-70
2022/06/18 05:42:10;;;;;;;0.50;0.50;;;22.40;90.60;;;;;;5114300;28;20422;-70
2022/06/18 05:44:36;;;;;;;0.40;0.40;;;22.80;90.10;;;;;;5114253;28;20716;-70
2022/06/18 05:47:23;;;;;;;0.30;0.30;;;23.10;88.70;;;;;;5114464;28;20409;-71
2022/06/18 05:49:51;;;;;;;0.40;0.40;;;23.30;87.90;;;;;;5113817;28;20421;-71
2022/06/18 05:52:17;;;;;;;0.40;0.40;;;23.50;86.20;;;;;;5113958;28;20410;-70
2022/06/18 05:54:43;;;;;;;0.40;0.40;;;23.60;86.60;;;;;;5114032;28;20429;-70
2022/06/18 05:57:09;;;;;;;0.30;0.30;;;23.70;86.10;;;;;;5113915;28;20453;-71
2022/06/18 05:59:35;;;;;;;0.30;0.30;;;23.80;86.40;;;;;;5114110;28;20689;-71
2022/06/18 06:02:01;;;;;;;0.30;0.30;;;24.00;86.70;;;;;;5113913;28;20428;-71
2022/06/18 06:04:28;;;;;;;0.87;0.50;;;24.30;85.60;;;;;;5113955;28;20213;-70
2022/06/18 06:06:54;;;;;;;0.30;0.30;;;24.90;83.10;;;;;;5114065;28;20182;-70
2022/06/18 06:12:12;;;;;;;3.17;0.80;;;26.40;81.20;;;;;;5113816;28;20405;-71
2022/06/18 06:14:40;;;;;;;1.70;0.83;;;26.90;77.60;;;;;;5114019;28;20434;-70
2022/06/18 06:17:14;;;;;;;0.30;0.30;;;27.50;76.10;;;;;;5114052;28;20450;-71
2022/06/18 06:19:40;;;;;;;0.57;0.57;;;28.20;74.20;;;;;;5113960;28;20438;-71
2022/06/18 06:22:06;;;;;;;0.30;0.30;;;29.20;71.10;;;;;;5112451;28;20912;-71
2022/06/18 06:24:31;;;;;;;0.40;0.40;;;30.30;66.20;;;;;;5114176;28;20520;-71
2022/06/18 06:26:57;;;;;;;0.60;0.40;;;31.20;62.50;;;;;;5112466;28;20168;-71
2022/06/18 06:29:23;;;;;;;0.30;0.30;;;31.70;60.00;;;;;;5112581;28;20191;-72
2022/06/18 06:31:48;;;;;;;0.30;0.30;;;32.40;58.50;;;;;;5114214;28;20168;-72
2022/06/18 06:34:14;;;;;;;0.30;0.30;;;32.60;54.60;;;;;;5113556;28;20249;-71
2022/06/18 06:36:40;;;;;;;0.43;0.43;;;32.70;53.10;;;;;;5113566;28;20664;-71
2022/06/18 06:39:06;;;;;;;0.30;0.30;;;32.70;53.30;;;;;;5114083;28;20183;-71
2022/06/18 06:41:32;;;;;;;0.40;0.30;;;32.90;51.30;;;;;;5113932;28;20180;-68
2022/06/18 06:43:58;;;;;;;0.40;0.40;;;33.20;51.40;;;;;;5113434;28;20188;-69
2022/06/18 06:46:24;;;;;;;1.37;0.80;;;34.00;48.90;;;;;;5113653;28;20412;-70
2022/06/18 06:48:49;;;;;;;0.93;0.93;;;34.70;46.90;;;;;;5113841;28;20252;-69
2022/06/18 06:51:19;;;;;;;0.40;0.40;;;35.50;45.60;;;;;;5113748;28;20171;-70
2022/06/18 06:53:45;;;;;;;0.40;0.40;;;36.20;45.80;;;;;;5113329;28;20188;-70
2022/06/18 06:58:58;;;;;;;0.40;0.40;;;37.70;43.50;;;;;;5113852;28;20432;-71
2022/06/18 07:01:24;;;;;;;0.50;0.50;;;38.30;41.70;;;;;;5113637;28;20477;-71
2022/06/18 07:03:50;;;;;;;0.37;0.37;;;38.70;41.50;;;;;;5113242;28;20421;-71
2022/06/18 07:06:16;;;;;;;0.73;0.70;;;39.00;41.10;;;;;;5113707;28;20902;-72
2022/06/18 07:08:43;;;;;;;0.40;0.40;;;39.10;39.50;;;;;;5113322;28;20164;-70
2022/06/18 07:11:09;;;;;;;0.40;0.40;;;39.00;40.50;;;;;;5115070;28;20874;-71
2022/06/18 07:13:35;;;;;;;0.40;0.40;;;39.20;38.70;;;;;;5117020;28;20417;-71
2022/06/18 07:16:00;;;;;;;0.40;0.40;;;39.20;38.80;;;;;;5117276;28;20424;-70
2022/06/18 07:18:32;;;;;;;0.40;0.37;;;39.60;39.00;;;;;;5116913;28;20245;-71
2022/06/18 07:20:59;;;;;;;0.43;0.43;;;40.00;38.60;;;;;;5117035;28;20357;-70
2022/06/18 07:23:25;;;;;;;0.40;0.30;;;40.20;36.00;;;;;;5116682;28;20413;-70
2022/06/18 07:25:51;;;;;;;0.50;0.40;;;40.50;37.20;;;;;;5117178;27;20850;-71
2022/06/18 07:28:17;;;;;;;0.93;0.57;;;40.70;36.10;;;;;;5117190;28;20455;-71
2022/06/18 07:30:46;;;;;;;0.47;0.47;;;41.00;36.30;;;;;;5117009;28;20168;-71
2022/06/18 07:33:14;;;;;;;0.50;0.50;;;41.10;36.20;;;;;;5116693;28;20398;-70
2022/06/18 07:35:40;;;;;;;0.40;0.37;;;41.30;36.20;;;;;;5116692;28;20804;-71
2022/06/18 07:38:06;;;;;;;0.47;0.47;;;41.70;37.10;;;;;;5116659;28;20456;-71
2022/06/18 07:40:38;;;;;;;0.50;0.50;;;41.90;34.90;;;;;;5116750;28;20178;-70
2022/06/18 07:43:08;;;;;;;0.50;0.50;;;42.30;33.00;;;;;;5116527;28;20168;-72
2022/06/18 07:45:34;;;;;;;1.53;1.43;;;42.80;32.40;;;;;;5116412;28;20426;-71
2022/06/18 07:48:00;;;;;;;0.40;0.30;;;43.10;30.70;;;;;;5116633;28;20518;-71
2022/06/18 07:50:25;;;;;;;0.73;0.50;;;43.40;28.50;;;;;;5116524;28;20515;-71
2022/06/18 07:52:51;;;;;;;0.40;0.30;;;43.30;29.60;;;;;;5116404;28;20199;-70
2022/06/18 07:55:21;;;;;;;0.30;0.30;;;43.50;30.60;;;;;;5116307;28;20197;-71
2022/06/18 07:57:47;;;;;;;0.30;0.30;;;43.40;28.50;;;;;;5116168;27;20453;-70
2022/06/18 08:00:18;;;;;;;0.50;0.50;;;42.50;26.70;;;;;;5116413;28;21008;-70
2022/06/18 08:02:45;;;;;;;0.60;0.60;;;40.20;29.70;;;;;;5116526;28;20526;-71
2022/06/18 08:05:12;;;;;;;0.40;0.40;;;39.80;29.90;;;;;;5116093;27;20429;-71
2022/06/18 08:07:39;;;;;;;0.40;0.40;;;40.50;28.80;;;;;;5116185;28;20495;-71
2022/06/18 08:10:05;;;;;;;0.40;0.40;;;40.60;26.70;;;;;;5116335;28;20413;-71
2022/06/18 08:12:32;;;;;;;0.40;0.30;;;40.70;27.10;;;;;;5115966;28;20413;-70
2022/06/18 08:14:58;;;;;;;0.30;0.30;;;41.40;28.00;;;;;;5115896;28;20426;-72
2022/06/18 08:17:25;;;;;;;0.40;0.40;;;41.10;27.70;;;;;;5115863;28;20541;-71
2022/06/18 08:19:50;;;;;;;1.27;0.50;;;39.50;27.90;;;;;;5114585;28;20811;-71
2022/06/18 08:22:16;;;;;;;0.30;0.30;;;39.60;28.60;;;;;;5113355;28;20444;-71
2022/06/18 08:24:43;;;;;;;0.30;0.30;;;40.50;29.10;;;;;;5115574;28;20191;-70
2022/06/18 08:27:09;;;;;;;0.60;0.60;;;41.10;27.80;;;;;;5115514;28;20406;-70
2022/06/18 08:29:35;;;;;;;0.50;0.40;;;40.90;27.10;;;;;;5115580;28;20460;-71
2022/06/18 08:32:02;;;;;;;1.37;1.17;;;40.20;27.50;;;;;;5115385;27;20406;-71
2022/06/18 08:34:28;;;;;;;0.50;0.50;;;39.90;27.50;;;;;;5115493;28;20441;-71
2022/06/18 08:36:54;;;;;;;0.50;0.50;;;39.70;28.30;;;;;;5115681;28;20455;-72
2022/06/18 08:39:19;;;;;;;0.40;0.40;;;39.60;28.70;;;;;;5115767;28;20532;-70
2022/06/18 08:41:54;;;;;;;0.40;0.40;;;39.90;29.00;;;;;;5115681;28;20524;-70
2022/06/18 08:44:45;;;;;;;0.40;0.40;;;40.30;27.60;;;;;;5115238;28;20244;-71
2022/06/18 08:47:41;;;;;;;0.30;0.30;;;40.00;28.50;;;;;;5115505;28;20410;-71
2022/06/18 08:50:19;;;;;;;0.30;0.30;;;39.80;29.00;;;;;;5115520;27;20763;-70
2022/06/18 08:53:07;;;;;;;0.40;0.40;;;40.30;28.20;;;;;;5115463;28;20398;-70
2022/06/18 08:55:54;;;;;;;0.40;0.40;;;40.50;29.00;;;;;;5109148;28;20849;-71
2022/06/18 08:58:40;;;;;;;0.40;0.40;;;40.70;28.40;;;;;;5115236;28;20449;-72
2022/06/18 09:01:26;;;;;;;0.90;0.90;;;41.20;28.80;;;;;;5115101;28;20386;-71
2022/06/18 09:04:25;;;;;;;0.50;0.50;;;41.20;26.00;;;;;;5114982;28;20418;-70
2022/06/18 09:07:10;;;;;;;0.40;0.40;;;40.80;25.60;;;;;;5114949;28;20418;-71
2022/06/18 09:09:52;;;;;;;0.37;0.30;;;40.50;27.00;;;;;;5115001;28;20394;-71
2022/06/18 09:12:28;;;;;;;0.50;0.50;;;40.40;26.00;;;;;;5114846;28;20485;-70
2022/06/18 09:15:03;;;;;;;0.40;0.40;;;40.40;26.10;;;;;;5115034;28;20425;-71
2022/06/18 09:17:46;;;;;;;2.10;2.10;;;40.70;27.50;;;;;;5113451;28;20445;-71
2022/06/18 09:20:34;;;;;;;0.87;0.87;;;40.80;28.00;;;;;;5114968;28;20485;-72
2022/06/18 09:23:15;;;;;;;0.40;0.30;;;40.80;26.50;;;;;;5114442;27;20426;-71
2022/06/18 09:25:44;;;;;;;0.30;0.30;;;40.50;25.90;;;;;;5114595;28;20409;-71
2022/06/18 09:28:22;;;;;;;0.50;0.50;;;40.20;26.80;;;;;;5114750;28;20405;-71
2022/06/18 09:31:12;;;;;;;0.40;0.40;;;40.60;27.50;;;;;;5114778;28;20407;-71
2022/06/18 09:33:47;;;;;;;0.50;0.40;;;40.20;26.50;;;;;;5114031;28;20428;-71
2022/06/18 09:36:20;;;;;;;0.60;0.60;;;39.40;26.20;;;;;;5114454;28;20454;-71
2022/06/18 09:38:49;;;;;;;0.33;0.30;;;38.90;26.30;;;;;;5114631;28;20485;-71
2022/06/18 09:41:20;;;;;;;0.40;0.30;;;39.00;26.90;;;;;;5114613;28;20488;-71
2022/06/18 09:44:00;;;;;;;0.40;0.37;;;38.30;27.50;;;;;;5114261;28;20445;-71
2022/06/18 09:46:34;;;;;;;0.50;0.50;;;37.70;28.40;;;;;;5114220;28;20393;-70
2022/06/18 09:48:59;;;;;;;0.50;0.50;;;37.70;29.60;;;;;;5114518;28;20827;-71
2022/06/18 09:51:38;;;;;;;0.40;0.40;;;38.30;31.40;;;;;;5114397;28;20489;-70
2022/06/18 09:54:06;;;;;;;0.40;0.30;;;38.80;27.50;;;;;;5114165;28;20191;-71
2022/06/18 09:56:38;;;;;;;0.30;0.30;;;38.80;29.00;;;;;;5114086;28;20411;-70
2022/06/18 09:59:14;;;;;;;1.43;1.27;;;38.70;27.20;;;;;;5114244;28;20434;-70
2022/06/18 10:01:47;;;;;;;0.40;0.30;;;38.60;28.90;;;;;;5114131;28;20405;-70
2022/06/18 10:07:04;;;;;;;0.40;0.40;;;38.10;29.20;;;;;;5114057;28;20405;-70
2022/06/18 10:09:30;;;;;;;0.47;0.47;;;38.20;28.50;;;;;;5114072;28;20463;-70
2022/06/18 10:11:56;;;;;;;0.60;0.40;;;38.60;27.70;;;;;;5114122;28;20784;-70
2022/06/18 10:14:23;;;;;;;0.50;0.50;;;38.30;28.10;;;;;;5113719;28;20180;-71
2022/06/18 10:16:52;;;;;;;0.50;0.50;;;38.70;26.70;;;;;;5113899;28;20972;-70
2022/06/18 10:19:32;;;;;;;0.40;0.30;;;38.10;26.40;;;;;;5114028;28;20401;-71
2022/06/18 10:22:42;;;;;;;0.40;0.30;;;38.10;27.70;;;;;;5113885;28;20412;-71
2022/06/18 10:25:29;;;;;;;0.40;0.40;;;37.80;27.70;;;;;;5080923;28;20437;-70
2022/06/18 10:28:32;;;;;;;0.40;0.30;;;37.60;26.70;;;;;;5113975;28;20398;-70
2022/06/18 10:31:17;;;;;;;0.33;0.30;;;37.30;27.80;;;;;;5113768;28;20402;-70
2022/06/18 10:34:13;;;;;;;0.40;0.30;;;36.40;27.00;;;;;;5113865;28;20768;-70
2022/06/18 10:37:06;;;;;;;0.40;0.30;;;35.80;28.10;;;;;;5113873;28;20482;-71
2022/06/18 10:40:02;;;;;;;0.50;0.50;;;35.60;28.40;;;;;;5113812;28;20409;-70
2022/06/18 10:42:56;;;;;;;0.30;0.30;;;35.60;29.20;;;;;;5112619;28;20433;-70
2022/06/18 10:45:34;;;;;;;0.30;0.30;;;35.90;30.40;;;;;;5113641;28;20418;-70
2022/06/18 10:48:01;;;;;;;0.30;0.30;;;36.00;27.70;;;;;;5117696;28;20390;-70
2022/06/18 10:50:29;;;;;;;0.30;0.30;;;35.70;27.30;;;;;;5117702;28;20405;-70
2022/06/18 10:53:04;;;;;;;0.30;0.30;;;35.50;29.40;;;;;;5117429;28;20397;-70
2022/06/18 10:55:30;;;;;;;0.73;0.50;;;35.70;29.50;;;;;;5117478;28;20436;-70
2022/06/18 10:58:12;;;;;;;3.80;1.80;;;35.40;26.60;;;;;;5117410;28;20453;-70
2022/06/18 11:00:38;;;;;;;1.13;1.03;;;34.60;28.90;;;;;;5117564;28;20398;-70
2022/06/18 11:03:18;;;;;;;0.30;0.30;;;34.40;30.10;;;;;;5117280;28;20405;-70
2022/06/18 11:05:46;;;;;;;0.40;0.30;;;34.20;30.70;;;;;;5117595;28;20386;-70
2022/06/18 11:08:23;;;;;;;2.10;0.67;;;33.90;29.90;;;;;;5117299;28;20481;-69
2022/06/18 11:11:12;;;;;;;0.30;0.30;;;33.90;31.60;;;;;;5117322;28;20394;-71
2022/06/18 11:13:42;;;;;;;0.30;0.30;;;33.60;33.20;;;;;;5117099;28;20417;-71
2022/06/18 11:16:21;;;;;;;1.73;1.63;;;33.60;30.00;;;;;;5117109;28;20408;-70
2022/06/18 11:18:57;;;;;;;0.70;0.70;;;33.70;32.00;;;;;;5117049;27;20459;-71
2022/06/18 11:21:33;;;;;;;0.43;0.43;;;33.60;32.20;;;;;;5117287;28;20394;-69
2022/06/18 11:24:04;;;;;;;0.40;0.40;;;33.80;33.50;;;;;;5116890;28;20444;-71
2022/06/18 11:26:31;;;;;;;0.30;0.30;;;33.80;30.60;;;;;;5116933;27;20390;-70
2022/06/18 11:29:01;;;;;;;0.40;0.40;;;33.60;30.70;;;;;;5116863;28;20886;-71
2022/06/18 11:31:35;;;;;;;0.30;0.30;;;33.80;34.10;;;;;;5116933;28;20420;-69
2022/06/18 11:34:16;;;;;;;0.30;0.30;;;33.70;30.00;;;;;;5116656;28;20421;-70
2022/06/18 11:36:48;;;;;;;0.40;0.40;;;33.30;30.60;;;;;;5116727;28;20440;-70
2022/06/18 11:39:37;;;;;;;0.30;0.30;;;32.90;31.10;;;;;;5116904;28;20399;-71
2022/06/18 11:42:10;;;;;;;0.30;0.30;;;32.90;35.80;;;;;;5116699;28;20430;-70
2022/06/18 11:45:26;;;;;;;0.50;0.50;;;32.90;32.00;;;;;;5116786;28;20425;-70
2022/06/18 11:48:07;;;;;;;0.90;0.90;;;32.70;35.40;;;;;;5098711;28;20410;-69
2022/06/18 11:50:32;;;;;;;0.30;0.30;;;32.60;32.80;;;;;;5116594;28;20447;-69
2022/06/18 11:53:11;;;;;;;0.40;0.30;;;32.70;33.20;;;;;;5116308;28;20934;-70
2022/06/18 11:55:45;;;;;;;0.30;0.30;;;32.60;35.80;;;;;;5116304;28;20184;-70
2022/06/18 11:58:20;;;;;;;0.30;0.30;;;32.70;31.50;;;;;;5116150;28;20449;-71
2022/06/18 12:01:11;;;;;;;0.30;0.30;;;32.60;31.50;;;;;;5116318;28;20397;-70
2022/06/18 12:03:51;;;;;;;0.60;0.60;;;32.60;31.60;;;;;;5108293;28;20414;-70
2022/06/18 12:06:16;;;;;;;0.30;0.30;;;32.60;32.50;;;;;;5116615;28;20387;-70
2022/06/18 12:08:43;;;;;;;0.50;0.50;;;32.50;34.10;;;;;;5114895;28;20913;-70
2022/06/18 12:11:21;;;;;;;0.73;0.73;;;32.60;32.90;;;;;;5116003;28;20164;-71
2022/06/18 12:13:49;;;;;;;0.40;0.40;;;32.70;31.80;;;;;;5115967;28;20417;-70
2022/06/18 12:16:36;;;;;;;0.40;0.30;;;32.70;33.60;;;;;;5115970;28;20398;-70
2022/06/18 12:19:04;;;;;;;0.30;0.30;;;32.70;31.60;;;;;;5116128;28;20988;-70
2022/06/18 12:21:52;;;;;;;0.30;0.30;;;32.70;32.70;;;;;;5115937;28;20399;-70
2022/06/18 12:24:37;;;;;;;0.30;0.30;;;32.70;33.60;;;;;;5114416;28;21013;-70
2022/06/18 12:27:13;;;;;;;0.30;0.30;;;32.50;33.00;;;;;;5116285;28;20378;-70
2022/06/18 12:29:56;;;;;;;0.37;0.37;;;32.20;31.30;;;;;;5115774;28;20773;-71
2022/06/18 12:32:30;;;;;;;0.30;0.30;;;32.10;32.80;;;;;;5115340;28;20401;-71
2022/06/18 12:35:15;;;;;;;0.30;0.30;;;31.80;32.60;;;;;;5115573;28;20932;-70
2022/06/18 12:37:49;;;;;;;0.30;0.30;;;31.40;32.60;;;;;;5115465;28;20449;-71
2022/06/18 12:40:19;;;;;;;0.40;0.40;;;31.30;33.40;;;;;;5115646;28;20386;-71
2022/06/18 12:42:51;;;;;;;0.30;0.30;;;31.10;33.40;;;;;;5115310;28;20433;-70
2022/06/18 12:45:34;;;;;;;0.50;0.50;;;31.20;32.90;;;;;;5115449;28;20787;-70
2022/06/18 12:48:24;;;;;;;0.40;0.40;;;31.20;33.90;;;;;;5115376;28;20485;-71
2022/06/18 12:51:05;;;;;;;0.40;0.40;;;31.20;35.70;;;;;;5115511;28;20402;-69
2022/06/18 12:54:02;;;;;;;0.30;0.30;;;31.20;35.20;;;;;;5115099;28;20393;-70
2022/06/18 12:56:43;;;;;;;0.30;0.30;;;31.20;35.50;;;;;;5115313;28;20416;-70
2022/06/18 12:59:27;;;;;;;0.30;0.30;;;31.20;33.40;;;;;;5115235;28;20414;-71
2022/06/18 13:02:17;;;;;;;0.40;0.40;;;31.20;33.40;;;;;;5115207;28;20398;-70
2022/06/18 13:05:00;;;;;;;0.30;0.30;;;31.20;35.00;;;;;;5113642;28;20458;-70
2022/06/18 13:07:46;;;;;;;0.40;0.40;;;31.40;34.30;;;;;;5115109;28;20398;-70
2022/06/18 13:10:20;;;;;;;0.30;0.30;;;31.20;34.60;;;;;;5114456;28;20501;-70
2022/06/18 13:13:14;;;;;;;0.30;0.30;;;31.10;33.70;;;;;;5114892;28;20386;-69
2022/06/18 13:15:47;;;;;;;0.30;0.30;;;31.10;35.50;;;;;;5099082;28;20426;-71
2022/06/18 13:18:31;;;;;;;0.60;0.60;;;31.20;35.30;;;;;;5114926;28;20498;-70
2022/06/18 13:20:59;;;;;;;1.20;1.20;;;31.40;35.40;;;;;;5114816;28;20393;-70
2022/06/18 13:29:13;;;;;;;0.30;0.30;;;31.10;35.90;;;;;;5114842;28;20404;-70